createdAt,value
2019-03-30T00:02:10.873Z,14.40
2019-03-30T00:04:39.292Z,13.32
2019-03-30T00:07:07.675Z,14.07
2019-03-30T00:09:36.081Z,14.23
2019-03-30T00:12:04.510Z,12.88
2019-03-30T00:14:32.917Z,13.78
2019-03-30T00:17:01.287Z,13.75
2019-03-30T00:19:35.105Z,12.75
2019-03-30T00:21:59.707Z,12.68
2019-03-30T00:24:28.099Z,14.35
2019-03-30T00:26:56.470Z,14.00
2019-03-30T00:29:24.870Z,13.88
2019-03-30T00:31:53.254Z,14.33
2019-03-30T00:34:21.649Z,14.47
2019-03-30T00:36:50.025Z,14.40
2019-03-30T00:39:18.429Z,12.45
2019-03-30T00:41:48.058Z,13.35
2019-03-30T00:44:16.452Z,13.75
2019-03-30T00:46:44.828Z,13.22
2019-03-30T00:49:13.223Z,14.15
2019-03-30T00:51:41.596Z,14.33
2019-03-30T00:54:10.066Z,14.47
2019-03-30T00:56:38.434Z,15.32
2019-03-30T00:59:06.854Z,14.53
2019-03-30T01:01:35.228Z,14.80
2019-03-30T01:04:03.739Z,15.40
2019-03-30T01:06:32.105Z,15.40
2019-03-30T01:09:00.498Z,14.65
2019-03-30T01:11:28.879Z,15.68
2019-03-30T01:13:57.276Z,16.35
2019-03-30T01:16:25.664Z,14.58
2019-03-30T01:18:54.044Z,14.58
2019-03-30T01:21:22.490Z,14.60
2019-03-30T01:23:50.887Z,14.43
2019-03-30T01:26:19.254Z,13.98
2019-03-30T01:28:47.647Z,15.75
2019-03-30T01:31:16.030Z,15.90
2019-03-30T01:33:44.432Z,14.33
2019-03-30T01:36:12.802Z,15.28
2019-03-30T01:38:41.198Z,14.00
2019-03-30T01:41:09.580Z,14.43
2019-03-30T01:43:37.990Z,13.15
2019-03-30T01:46:06.350Z,14.45
2019-03-30T01:48:34.747Z,14.68
2019-03-30T01:51:03.128Z,13.10
2019-03-30T01:53:31.520Z,13.65
2019-03-30T01:55:59.898Z,14.15
2019-03-30T01:58:28.278Z,12.55
2019-03-30T02:00:56.683Z,14.68
2019-03-30T02:03:25.056Z,12.68
2019-03-30T02:05:53.446Z,13.70
2019-03-30T02:08:21.814Z,12.70
2019-03-30T02:10:50.136Z,14.47
2019-03-30T02:13:18.516Z,13.32
2019-03-30T02:15:46.911Z,14.07
2019-03-30T02:18:15.293Z,13.83
2019-03-30T02:20:44.941Z,13.58
2019-03-30T02:23:13.327Z,15.08
2019-03-30T02:25:41.723Z,14.75
2019-03-30T02:28:10.095Z,14.87
2019-03-30T02:30:38.492Z,13.75
2019-03-30T02:33:06.870Z,13.38
2019-03-30T02:35:35.273Z,14.93
2019-03-30T02:38:03.659Z,13.95
2019-03-30T02:40:32.052Z,13.95
2019-03-30T02:43:00.695Z,13.68
2019-03-30T02:45:29.080Z,13.03
2019-03-30T02:47:57.442Z,14.87
2019-03-30T02:50:25.854Z,14.00
2019-03-30T02:52:54.302Z,14.20
2019-03-30T02:55:22.687Z,13.40
2019-03-30T02:57:51.060Z,14.80
2019-03-30T03:00:19.818Z,13.55
2019-03-30T03:02:48.202Z,13.95
2019-03-30T03:05:16.662Z,13.88
2019-03-30T03:07:45.033Z,14.35
2019-03-30T03:10:13.417Z,11.93
2019-03-30T03:12:41.913Z,14.38
2019-03-30T03:15:10.321Z,13.78
2019-03-30T03:17:38.704Z,14.78
2019-03-30T03:20:07.152Z,14.28
2019-03-30T03:22:35.534Z,14.28
2019-03-30T03:25:06.073Z,14.83
2019-03-30T03:27:34.453Z,14.50
2019-03-30T03:30:02.842Z,14.70
2019-03-30T03:32:31.226Z,13.50
2019-03-30T03:34:59.611Z,14.65
2019-03-30T03:37:43.612Z,13.25
2019-03-30T03:39:58.032Z,13.05
2019-03-30T03:42:26.405Z,13.80
2019-03-30T03:44:54.802Z,14.75
2019-03-30T03:47:23.168Z,14.40
2019-03-30T03:49:51.561Z,15.13
2019-03-30T03:52:20.302Z,13.22
2019-03-30T03:54:48.705Z,13.68
2019-03-30T03:57:17.066Z,14.00
2019-03-30T03:59:45.472Z,14.80
2019-03-30T04:02:13.856Z,14.58
2019-03-30T04:04:46.785Z,14.75
2019-03-30T04:07:12.295Z,13.93
2019-03-30T04:09:42.327Z,13.55
2019-03-30T04:12:10.724Z,13.53
2019-03-30T04:14:39.100Z,14.28
2019-03-30T04:17:07.501Z,14.58
2019-03-30T04:19:35.885Z,13.83
2019-03-30T04:22:04.271Z,14.75
2019-03-30T04:24:32.650Z,15.03
2019-03-30T04:27:01.070Z,15.28
2019-03-30T04:29:29.432Z,14.73
2019-03-30T04:31:57.820Z,15.23
2019-03-30T04:34:26.198Z,15.50
2019-03-30T04:36:54.610Z,14.78
2019-03-30T04:39:22.985Z,15.85
2019-03-30T04:41:51.387Z,15.35
2019-03-30T04:44:19.784Z,15.65
2019-03-30T04:46:48.172Z,14.70
2019-03-30T04:49:16.564Z,18.05
2019-03-30T04:51:56.850Z,15.85
2019-03-30T04:54:14.983Z,15.78
2019-03-30T04:56:43.389Z,16.20
2019-03-30T04:59:11.760Z,16.70
2019-03-30T05:01:40.164Z,14.70
2019-03-30T05:04:08.544Z,16.15
2019-03-30T05:06:36.950Z,14.65
2019-03-30T05:09:06.190Z,14.10
2019-03-30T05:11:34.575Z,14.73
2019-03-30T05:14:03.049Z,15.05
2019-03-30T05:16:31.441Z,15.18
2019-03-30T05:18:59.813Z,14.38
2019-03-30T05:21:28.194Z,14.38
2019-03-30T05:23:56.575Z,14.05
2019-03-30T05:26:24.959Z,14.78
2019-03-30T05:28:53.366Z,15.15
2019-03-30T05:31:21.751Z,15.32
2019-03-30T05:33:50.136Z,16.40
2019-03-30T05:36:19.752Z,14.95
2019-03-30T05:38:48.118Z,15.35
2019-03-30T05:41:17.844Z,16.20
2019-03-30T05:43:46.210Z,15.98
2019-03-30T05:46:14.602Z,14.70
2019-03-30T05:48:42.988Z,15.80
2019-03-30T05:51:11.379Z,16.97
2019-03-30T05:53:39.742Z,18.15
2019-03-30T05:56:08.137Z,16.15
2019-03-30T05:58:36.529Z,18.23
2019-03-30T06:01:04.901Z,15.72
2019-03-30T06:03:33.283Z,16.30
2019-03-30T06:06:01.649Z,14.45
2019-03-30T06:08:30.043Z,15.68
2019-03-30T06:10:58.415Z,15.15
2019-03-30T06:13:26.800Z,14.80
2019-03-30T06:15:55.275Z,15.90
2019-03-30T06:18:23.680Z,16.90
2019-03-30T06:20:52.064Z,15.53
2019-03-30T06:23:20.463Z,17.07
2019-03-30T06:25:48.832Z,17.85
2019-03-30T06:28:17.238Z,16.80
2019-03-30T06:30:45.873Z,17.50
2019-03-30T06:33:14.250Z,17.67
2019-03-30T06:35:43.810Z,16.30
2019-03-30T06:38:12.240Z,16.52
2019-03-30T06:40:40.773Z,15.25
2019-03-30T06:43:09.249Z,14.63
2019-03-30T06:45:37.665Z,16.77
2019-03-30T06:48:06.111Z,16.15
2019-03-30T06:50:34.496Z,15.75
2019-03-30T06:53:03.037Z,15.75
2019-03-30T06:55:31.424Z,15.58
2019-03-30T06:58:07.790Z,16.65
2019-03-30T07:00:36.254Z,16.37
2019-03-30T07:03:05.412Z,16.12
2019-03-30T09:03:22.151Z,18.27
2019-03-30T09:05:50.579Z,18.30
2019-03-30T09:08:18.965Z,17.07
2019-03-30T09:10:47.375Z,19.57
2019-03-30T09:13:15.758Z,18.70
2019-03-30T09:15:44.158Z,18.70
2019-03-30T09:18:12.546Z,17.95
2019-03-30T09:20:40.955Z,17.52
2019-03-30T09:23:09.319Z,19.65
2019-03-30T09:25:37.711Z,18.48
2019-03-30T09:28:06.125Z,17.98
2019-03-30T09:30:34.524Z,18.37
2019-03-30T09:33:02.909Z,18.23
2019-03-30T09:35:31.308Z,19.50
2019-03-30T09:37:59.692Z,19.95
2019-03-30T09:40:28.084Z,19.37
2019-03-30T09:42:56.464Z,19.80
2019-03-30T09:45:24.922Z,19.60
2019-03-30T09:47:53.312Z,18.07
2019-03-30T09:50:21.768Z,18.45
2019-03-30T09:52:50.157Z,18.02
2019-03-30T09:55:18.555Z,18.17
2019-03-30T09:57:46.933Z,17.12
2019-03-30T10:00:15.382Z,17.48
2019-03-30T10:02:43.692Z,17.00
2019-03-30T10:05:12.694Z,16.07
2019-03-30T10:07:41.525Z,16.07
2019-03-30T10:10:11.793Z,16.67
2019-03-30T10:12:40.639Z,17.00
2019-03-30T10:15:08.994Z,17.45
2019-03-30T10:17:37.371Z,17.62
2019-03-30T10:20:08.852Z,18.02
2019-03-30T10:22:37.221Z,16.82
2019-03-30T10:25:06.305Z,17.00
2019-03-30T10:27:34.670Z,15.60
2019-03-30T10:30:03.222Z,15.43
2019-03-30T10:32:31.624Z,16.40
2019-03-30T10:35:00.031Z,13.93
2019-03-30T10:37:28.386Z,14.03
2019-03-30T10:39:56.758Z,16.05
2019-03-30T10:42:25.955Z,16.07
2019-03-30T10:44:54.327Z,16.50
2019-03-30T10:47:22.714Z,12.95
2019-03-30T10:49:51.023Z,14.53
2019-03-30T10:52:19.437Z,14.65
2019-03-30T10:54:52.975Z,13.88
2019-03-30T10:57:17.860Z,14.05
2019-03-30T10:59:46.240Z,13.93
2019-03-30T11:02:14.630Z,15.18
2019-03-30T11:04:42.936Z,14.68
2019-03-30T11:07:12.957Z,14.05
2019-03-30T11:09:41.330Z,13.10
2019-03-30T11:12:09.651Z,15.32
2019-03-30T11:14:38.063Z,16.25
2019-03-30T11:17:06.443Z,14.38
2019-03-30T11:19:34.823Z,12.30
2019-03-30T11:22:03.603Z,13.83
2019-03-30T11:24:32.068Z,15.72
2019-03-30T11:27:00.454Z,13.50
2019-03-30T11:29:28.768Z,15.85
2019-03-30T11:31:58.421Z,14.03
2019-03-30T11:34:26.804Z,14.78
2019-03-30T11:36:55.208Z,13.13
2019-03-30T11:39:23.686Z,12.65
2019-03-30T11:41:52.055Z,14.05
2019-03-30T11:44:20.435Z,12.95
2019-03-30T11:46:48.832Z,12.73
2019-03-30T11:49:17.239Z,13.68
2019-03-30T11:51:45.656Z,12.00
2019-03-30T11:54:14.054Z,14.33
2019-03-30T11:56:42.486Z,12.55
2019-03-30T11:59:10.867Z,12.65
2019-03-30T12:01:39.254Z,12.43
2019-03-30T12:04:07.655Z,8.93
2019-03-30T12:06:36.030Z,9.83
2019-03-30T12:09:07.467Z,10.65
2019-03-30T12:11:36.321Z,11.12
2019-03-30T12:14:04.719Z,10.70
2019-03-30T12:16:33.171Z,10.32
2019-03-30T12:19:01.571Z,10.15
2019-03-30T12:21:29.968Z,9.50
2019-03-30T12:23:58.363Z,7.65
2019-03-30T12:26:26.735Z,6.87
2019-03-30T12:28:55.122Z,6.83
2019-03-30T12:31:23.410Z,5.35
2019-03-30T12:33:51.942Z,5.70
2019-03-30T12:36:20.318Z,6.60
2019-03-30T12:38:48.722Z,5.92
2019-03-30T12:41:17.089Z,6.08
2019-03-30T12:43:45.492Z,5.72
2019-03-30T12:46:13.873Z,7.03
2019-03-30T12:48:42.263Z,6.50
2019-03-30T12:51:11.207Z,6.72
2019-03-30T12:53:50.087Z,6.00
2019-03-30T12:56:09.606Z,6.08
2019-03-30T12:58:38.067Z,6.12
2019-03-30T13:01:09.151Z,6.65
2019-03-30T13:03:37.566Z,7.35
2019-03-30T13:06:05.932Z,8.08
2019-03-30T13:08:34.319Z,8.68
2019-03-30T13:11:02.713Z,9.10
2019-03-30T13:13:31.095Z,7.97
2019-03-30T13:15:59.494Z,10.45
2019-03-30T13:18:27.902Z,10.38
2019-03-30T13:20:56.513Z,9.95
2019-03-30T13:23:24.914Z,10.13
2019-03-30T13:26:03.491Z,10.25
2019-03-30T13:28:23.341Z,7.97
2019-03-30T13:30:51.711Z,8.80
2019-03-30T13:33:20.111Z,8.08
2019-03-30T13:35:48.488Z,7.92
2019-03-30T13:38:17.078Z,9.08
2019-03-30T13:40:45.552Z,9.15
2019-03-30T13:43:13.944Z,8.25
2019-03-30T13:45:42.311Z,9.10
2019-03-30T13:48:10.704Z,9.08
2019-03-30T13:50:39.093Z,8.48
2019-03-30T13:53:07.488Z,10.35
2019-03-30T13:55:35.874Z,9.80
2019-03-30T13:58:04.788Z,9.50
2019-03-30T14:00:33.192Z,9.70
2019-03-30T14:03:01.596Z,10.82
2019-03-30T14:05:29.979Z,9.45
2019-03-30T14:07:58.343Z,9.83
2019-03-30T14:10:26.743Z,9.38
2019-03-30T14:12:55.110Z,10.38
2019-03-30T14:15:23.432Z,9.70
2019-03-30T14:17:51.802Z,9.53
2019-03-30T14:20:20.201Z,10.13
2019-03-30T14:22:48.567Z,9.48
2019-03-30T14:25:16.958Z,10.28
2019-03-30T14:27:45.337Z,11.35
2019-03-30T14:30:13.727Z,9.98
2019-03-30T14:32:42.099Z,10.35
2019-03-30T14:35:10.573Z,11.08
2019-03-30T14:37:38.957Z,11.10
2019-03-30T14:40:07.973Z,10.15
2019-03-30T14:42:36.295Z,9.25
2019-03-30T14:45:08.590Z,9.93
2019-03-30T14:47:36.962Z,9.75
2019-03-30T14:50:07.913Z,8.93
2019-03-30T14:52:37.796Z,8.85
2019-03-30T14:55:07.820Z,8.85
2019-03-30T14:57:36.192Z,9.43
2019-03-30T15:00:07.305Z,9.43
2019-03-30T15:02:35.747Z,9.15
2019-03-30T15:05:06.478Z,8.33
2019-03-30T15:07:34.862Z,8.40
2019-03-30T15:10:04.399Z,8.80
2019-03-30T15:12:32.791Z,8.83
2019-03-30T15:15:01.174Z,9.05
2019-03-30T15:17:29.572Z,8.88
2019-03-30T15:19:57.958Z,8.53
2019-03-30T15:22:26.335Z,9.13
2019-03-30T15:24:54.726Z,8.30
2019-03-30T15:27:23.594Z,9.05
2019-03-30T15:29:51.941Z,9.08
2019-03-30T15:32:20.320Z,9.50
2019-03-30T15:34:48.719Z,8.63
2019-03-30T15:37:17.092Z,8.88
2019-03-30T15:39:45.490Z,7.75
2019-03-30T15:42:13.946Z,8.45
2019-03-30T15:44:42.251Z,9.28
2019-03-30T15:47:10.641Z,9.15
2019-03-30T15:49:39.009Z,8.30
2019-03-30T15:52:13.941Z,9.53
2019-03-30T15:54:37.489Z,7.33
2019-03-30T15:57:14.082Z,7.70
2019-03-30T15:59:35.886Z,7.17
2019-03-30T16:02:04.356Z,8.90
2019-03-30T16:04:32.731Z,9.15
2019-03-30T16:07:01.127Z,7.75
2019-03-30T16:09:29.508Z,8.28
2019-03-30T16:11:57.890Z,7.97
2019-03-30T16:14:26.338Z,7.28
2019-03-30T16:16:54.651Z,7.75
2019-03-30T16:19:23.112Z,9.08
2019-03-30T16:21:51.505Z,7.83
2019-03-30T16:24:19.889Z,7.72
2019-03-30T16:26:48.280Z,8.28
2019-03-30T16:29:16.656Z,8.33
2019-03-30T16:31:45.144Z,8.63
2019-03-30T16:34:13.490Z,7.05
2019-03-30T16:36:41.914Z,7.22
2019-03-30T16:39:10.297Z,9.90
2019-03-30T16:41:38.695Z,8.95
2019-03-30T16:44:07.075Z,9.65
2019-03-30T16:46:35.481Z,8.38
2019-03-30T16:49:03.861Z,9.13
2019-03-30T16:51:32.281Z,8.03
2019-03-30T16:54:00.658Z,9.15
2019-03-30T16:56:29.061Z,8.75
2019-03-30T16:58:57.440Z,9.05
2019-03-30T17:01:25.844Z,11.95
2019-03-30T17:03:54.207Z,9.00
2019-03-30T17:06:22.624Z,9.20
2019-03-30T17:08:50.995Z,9.20
2019-03-30T17:11:19.363Z,9.80
2019-03-30T17:13:47.766Z,8.80
2019-03-30T17:16:16.133Z,8.70
2019-03-30T17:18:44.548Z,8.48
2019-03-30T17:21:12.936Z,8.25
2019-03-30T17:23:41.340Z,9.53
2019-03-30T17:26:09.720Z,9.60
2019-03-30T17:28:38.124Z,10.53
2019-03-30T17:31:06.488Z,12.68
2019-03-30T17:33:34.892Z,12.85
2019-03-30T17:36:03.340Z,12.50
2019-03-30T17:38:31.732Z,12.93
2019-03-30T17:41:00.113Z,13.62
2019-03-30T17:43:28.518Z,13.60
2019-03-30T17:45:56.897Z,15.95
2019-03-30T17:48:25.295Z,20.92
2019-03-30T17:50:53.678Z,23.50
2019-03-30T17:53:22.076Z,24.80
2019-03-30T17:55:50.527Z,24.47
2019-03-30T17:58:18.915Z,23.42
2019-03-30T18:00:48.095Z,22.13
2019-03-30T18:03:16.475Z,25.57
2019-03-30T18:05:44.853Z,22.48
2019-03-30T18:08:13.362Z,22.10
2019-03-30T18:10:41.730Z,18.98
2019-03-30T18:13:10.063Z,18.60
2019-03-30T18:15:38.451Z,19.55
2019-03-30T18:18:06.834Z,18.12
2019-03-30T18:20:35.122Z,15.98
2019-03-30T18:23:03.435Z,13.48
2019-03-30T18:25:31.747Z,12.43
2019-03-30T18:28:00.146Z,10.50
2019-03-30T18:30:36.515Z,9.98
2019-03-30T18:33:05.115Z,8.05
2019-03-30T18:35:33.759Z,9.70
2019-03-30T18:38:03.447Z,8.80
2019-03-30T18:40:32.688Z,8.38
2019-03-30T18:43:02.571Z,7.95
2019-03-30T18:45:31.032Z,7.92
2019-03-30T18:48:12.988Z,8.33
2019-03-30T18:50:41.546Z,8.38
2019-03-30T18:53:09.996Z,8.75
2019-03-30T18:55:38.399Z,9.28
2019-03-30T18:58:06.784Z,9.25
2019-03-30T19:00:35.214Z,10.45
2019-03-30T19:03:03.525Z,9.23
2019-03-30T19:05:31.923Z,10.10
2019-03-30T19:08:00.305Z,10.63
2019-03-30T19:10:28.711Z,10.18
2019-03-30T19:12:57.075Z,10.00
2019-03-30T19:15:25.537Z,11.38
2019-03-30T19:17:53.864Z,10.08
2019-03-30T19:20:22.279Z,11.22
2019-03-30T19:22:50.664Z,12.05
2019-03-30T19:25:19.059Z,12.13
2019-03-30T19:27:47.374Z,12.98
2019-03-30T19:30:15.820Z,16.77
2019-03-30T19:32:44.200Z,15.98
2019-03-30T19:35:12.658Z,15.20
2019-03-30T19:37:41.031Z,16.60
2019-03-30T19:40:09.612Z,17.00
2019-03-30T19:42:38.031Z,15.08
2019-03-30T19:45:07.527Z,12.95
2019-03-30T19:47:36.859Z,12.45
2019-03-30T19:50:06.933Z,13.40
2019-03-30T19:52:40.200Z,14.20
2019-03-30T19:55:06.506Z,13.00
2019-03-30T19:57:34.878Z,14.50
2019-03-30T20:00:03.743Z,13.20
2019-03-30T20:02:32.143Z,14.28
2019-03-30T20:05:00.560Z,14.63
2019-03-30T20:07:28.934Z,14.18
2019-03-30T20:09:57.332Z,14.10
2019-03-30T20:12:25.723Z,14.70
2019-03-30T20:14:54.216Z,14.30
2019-03-30T20:17:22.705Z,13.45
2019-03-30T20:19:53.058Z,13.78
2019-03-30T20:22:21.641Z,13.35
2019-03-30T20:24:50.039Z,13.98
2019-03-30T20:27:18.419Z,14.20
2019-03-30T20:29:46.842Z,13.40
2019-03-30T20:32:15.246Z,13.78
2019-03-30T20:34:43.579Z,14.00
2019-03-30T20:37:11.953Z,15.00
2019-03-30T20:39:40.394Z,15.30
2019-03-30T20:42:08.757Z,14.90
2019-03-30T20:44:37.316Z,15.45
2019-03-30T20:47:05.757Z,15.23
2019-03-30T20:49:34.155Z,14.15
2019-03-30T20:52:02.521Z,15.68
2019-03-30T20:54:30.941Z,15.68
2019-03-30T20:56:59.495Z,13.83
2019-03-30T20:59:39.273Z,16.00
2019-03-30T21:01:58.144Z,15.48
2019-03-30T21:04:26.558Z,14.30
2019-03-30T21:06:54.862Z,15.25
2019-03-30T21:09:23.162Z,13.90
2019-03-30T21:11:51.751Z,15.58
2019-03-30T21:14:20.146Z,16.45
2019-03-30T21:16:48.552Z,15.75
2019-03-30T21:19:16.936Z,16.30
2019-03-30T21:21:45.324Z,15.28
2019-03-30T21:24:13.695Z,14.93
2019-03-30T21:26:42.096Z,15.72
2019-03-30T21:29:10.478Z,17.67
2019-03-30T21:31:38.888Z,16.12
2019-03-30T21:34:07.268Z,14.65
2019-03-30T21:36:35.727Z,15.58
2019-03-30T21:39:06.249Z,14.43
2019-03-30T21:41:34.635Z,16.20
2019-03-30T21:44:03.090Z,15.00
2019-03-30T21:46:31.522Z,14.53
2019-03-30T21:49:00.864Z,15.45
2019-03-30T21:51:29.276Z,15.98
2019-03-30T21:53:57.674Z,14.58
2019-03-30T21:56:26.161Z,15.53
2019-03-30T21:58:54.630Z,15.30
2019-03-30T22:01:23.039Z,15.65
2019-03-30T22:03:51.387Z,14.75
2019-03-30T22:06:19.851Z,16.27
2019-03-30T22:08:48.700Z,17.27
2019-03-30T22:11:17.102Z,17.17
2019-03-30T22:13:45.399Z,16.90
2019-03-30T22:16:13.757Z,16.20
2019-03-30T22:18:42.127Z,15.30
2019-03-30T22:21:10.528Z,16.30
2019-03-30T22:23:38.903Z,16.23
2019-03-30T22:26:07.471Z,15.98
2019-03-30T22:28:35.869Z,15.23
2019-03-30T22:31:04.266Z,15.55
2019-03-30T22:33:32.648Z,15.65
2019-03-30T22:36:01.048Z,15.25
2019-03-30T22:38:29.426Z,17.30
2019-03-30T22:40:57.840Z,16.50
2019-03-30T22:43:26.221Z,16.00
2019-03-30T22:45:54.623Z,15.68
2019-03-30T22:48:24.963Z,17.35
2019-03-30T22:50:53.381Z,24.07
2019-03-30T22:53:23.127Z,17.32
2019-03-30T22:55:51.515Z,19.07
2019-03-30T22:58:19.893Z,18.77
2019-03-30T23:01:01.766Z,18.23
2019-03-30T23:03:30.109Z,15.63
2019-03-30T23:05:58.547Z,16.97
2019-03-30T23:08:26.918Z,15.23
2019-03-30T23:10:55.317Z,15.15
2019-03-30T23:13:23.682Z,15.88
2019-03-30T23:15:52.075Z,13.85
2019-03-30T23:18:20.446Z,14.85
2019-03-30T23:20:48.830Z,15.98
2019-03-30T23:23:17.200Z,15.13
2019-03-30T23:25:45.610Z,14.98
2019-03-30T23:28:13.985Z,15.28
2019-03-30T23:30:53.582Z,14.40
2019-03-30T23:33:12.476Z,13.62
2019-03-30T23:35:40.869Z,14.23
2019-03-30T23:38:09.247Z,15.58
2019-03-30T23:40:37.623Z,15.53
2019-03-30T23:43:06.037Z,14.55
2019-03-30T23:45:34.407Z,15.25
2019-03-30T23:48:02.802Z,15.10
2019-03-30T23:50:31.167Z,14.38
2019-03-30T23:52:59.564Z,15.15
2019-03-30T23:55:27.945Z,15.60
2019-03-30T23:57:56.341Z,16.52
